createdAt,value
2022-08-09T00:02:34.400Z,100358.34
2022-08-09T00:07:44.593Z,100353.48
2022-08-09T00:12:51.664Z,100355.75
2022-08-09T00:18:05.623Z,100357.02
2022-08-09T00:23:55.015Z,100360.98
2022-08-09T00:28:39.767Z,100360.77
2022-08-09T00:33:50.529Z,100361.98
2022-08-09T00:38:54.662Z,100361.64
2022-08-09T00:44:11.266Z,100359.86
2022-08-09T00:49:20.712Z,100362.08
2022-08-09T00:54:35.078Z,100360.97
2022-08-09T00:59:46.928Z,100357.91
2022-08-09T01:05:21.991Z,100366.38
2022-08-09T01:10:45.183Z,100370.04
2022-08-09T01:15:51.844Z,100371.70
2022-08-09T01:21:44.542Z,100372.23
2022-08-09T01:27:05.682Z,100376.23
2022-08-09T01:32:29.868Z,100379.18
2022-08-09T01:38:05.738Z,100380.78
2022-08-09T01:43:03.508Z,100380.50
2022-08-09T01:48:11.202Z,100378.58
2022-08-09T01:53:23.058Z,100379.35
2022-08-09T01:58:28.993Z,100379.24
2022-08-09T02:03:35.928Z,100378.65
2022-08-09T02:08:58.120Z,100384.36
2022-08-09T02:14:07.867Z,100379.00
2022-08-09T02:19:12.864Z,100377.36
2022-08-09T02:24:26.113Z,100376.79
2022-08-09T02:29:38.017Z,100376.94
2022-08-09T02:34:51.857Z,100374.10
2022-08-09T02:40:27.044Z,100380.86
2022-08-09T02:45:40.828Z,100382.59
2022-08-09T02:50:55.735Z,100387.75
2022-08-09T02:56:01.221Z,100386.15
2022-08-09T03:01:10.904Z,100389.02
2022-08-09T03:06:19.827Z,100388.98
2022-08-09T03:12:04.158Z,100394.34
2022-08-09T03:16:50.406Z,100392.77
2022-08-09T03:21:55.150Z,100399.57
2022-08-09T03:27:00.006Z,100402.15
2022-08-09T03:32:06.554Z,100401.92
2022-08-09T03:37:54.347Z,100398.77
2022-08-09T03:42:35.096Z,100396.10
2022-08-09T03:47:40.205Z,100392.91
2022-08-09T03:52:50.340Z,100391.00
2022-08-09T03:58:03.245Z,100396.61
2022-08-09T04:03:11.873Z,100400.48
2022-08-09T04:08:29.008Z,100408.73
2022-08-09T04:13:44.844Z,100409.18
2022-08-09T04:18:55.807Z,100406.67
2022-08-09T04:24:00.516Z,100408.98
2022-08-09T04:29:10.794Z,100410.59
2022-08-09T04:34:18.783Z,100415.36
2022-08-09T04:39:33.652Z,100419.64
2022-08-09T04:44:49.044Z,100420.27
2022-08-09T04:49:55.711Z,100428.75
2022-08-09T04:55:02.578Z,100430.33
2022-08-09T05:00:09.443Z,100430.66
2022-08-09T05:05:12.474Z,100431.58
2022-08-09T05:10:22.196Z,100431.48
2022-08-09T05:15:39.079Z,100436.77
2022-08-09T05:20:50.952Z,100434.30
2022-08-09T05:25:54.156Z,100437.76
2022-08-09T05:30:59.958Z,100437.94
2022-08-09T05:36:14.861Z,100437.18
2022-08-09T05:41:18.695Z,100442.44
2022-08-09T05:46:21.485Z,100443.05
2022-08-09T05:51:42.367Z,100445.14
2022-08-09T05:56:55.006Z,100444.13
2022-08-09T06:01:59.798Z,100444.89
2022-08-09T06:07:04.358Z,100445.36
2022-08-09T06:12:08.005Z,100447.36
2022-08-09T06:17:12.150Z,100450.96
2022-08-09T06:22:17.510Z,100448.88
2022-08-09T06:27:20.543Z,100448.79
2022-08-09T06:32:53.311Z,100451.39
2022-08-09T06:37:52.913Z,100449.73
2022-08-09T06:43:10.532Z,100450.64
2022-08-09T06:48:16.691Z,100450.05
2022-08-09T06:53:33.222Z,100458.44
2022-08-09T07:00:50.474Z,100463.95
2022-08-09T07:04:04.716Z,100467.44
2022-08-09T07:09:53.627Z,100468.57
2022-08-09T07:14:35.564Z,100470.23
2022-08-09T07:19:38.465Z,100467.20
2022-08-09T07:24:44.322Z,100469.70
2022-08-09T07:29:52.308Z,100466.58
2022-08-09T07:35:00.068Z,100472.45
2022-08-09T07:40:04.996Z,100473.98
2022-08-09T07:45:22.849Z,100476.70
2022-08-09T07:50:36.330Z,100483.16
2022-08-09T07:56:02.947Z,100485.36
2022-08-09T08:01:06.744Z,100487.50
2022-08-09T08:06:14.220Z,100486.54
2022-08-09T08:12:11.481Z,100493.17
2022-08-09T08:16:51.108Z,100494.13
2022-08-09T08:22:06.122Z,100496.25
2022-08-09T08:27:16.936Z,100497.76
2022-08-09T08:32:29.051Z,100502.77
2022-08-09T08:37:41.261Z,100504.25
2022-08-09T08:42:47.053Z,100505.89
2022-08-09T08:47:50.700Z,100502.84
2022-08-09T08:53:03.973Z,100500.38
2022-08-09T08:58:10.814Z,100500.23
2022-08-09T09:03:22.980Z,100498.52
2022-08-09T09:08:42.091Z,100494.67
2022-08-09T09:13:56.181Z,100485.73
2022-08-09T09:19:36.903Z,100484.59
2022-08-09T09:24:37.956Z,100482.35
2022-08-09T09:30:12.271Z,100481.95
2022-08-09T09:35:10.923Z,100478.45
2022-08-09T09:40:18.924Z,100479.46
2022-08-09T09:45:26.772Z,100485.72
2022-08-09T09:50:50.558Z,100479.55
2022-08-09T09:56:04.407Z,100474.75
2022-08-09T10:01:37.275Z,100476.41
2022-08-09T10:06:47.010Z,100476.55
2022-08-09T10:12:14.747Z,100478.81
2022-08-09T10:17:51.194Z,100476.70
2022-08-09T10:23:01.085Z,100466.73
2022-08-09T10:28:05.034Z,100460.31
2022-08-09T10:33:09.973Z,100456.36
2022-08-09T10:38:56.912Z,100461.75
2022-08-09T10:44:01.957Z,100458.93
2022-08-09T10:49:19.921Z,100454.28
2022-08-09T10:54:25.410Z,100462.52
2022-08-09T10:59:31.856Z,100462.17
2022-08-09T11:05:24.571Z,100459.03
2022-08-09T11:10:53.282Z,100454.21
2022-08-09T11:16:40.978Z,100458.25
2022-08-09T11:22:16.625Z,100450.85
2022-08-09T11:28:04.630Z,100450.94
2022-08-09T11:33:17.506Z,100446.64
2022-08-09T11:38:32.384Z,100448.11
2022-08-09T11:43:37.422Z,100438.79
2022-08-09T11:48:59.457Z,100436.37
2022-08-09T11:54:27.843Z,100437.48
2022-08-09T11:59:34.044Z,100438.84
2022-08-09T12:04:38.205Z,100426.98
2022-08-09T12:09:50.695Z,100426.02
2022-08-09T12:15:04.203Z,100420.33
2022-08-09T12:20:25.687Z,100416.58
2022-08-09T12:25:37.357Z,100417.60
2022-08-09T12:30:42.238Z,100417.89
2022-08-09T12:35:45.917Z,100419.43
2022-08-09T12:40:52.649Z,100410.80
2022-08-09T12:46:00.269Z,100413.30
2022-08-09T12:51:04.908Z,100403.83
2022-08-09T12:56:37.010Z,100403.78
2022-08-09T13:01:50.179Z,100404.58
2022-08-09T13:06:54.838Z,100403.52
2022-08-09T13:12:04.936Z,100393.14
2022-08-09T13:17:43.926Z,100392.99
2022-08-09T13:23:01.748Z,100391.51
2022-08-09T13:28:19.015Z,100395.48
2022-08-09T13:33:53.426Z,100385.77
2022-08-09T13:38:59.997Z,100384.88
2022-08-09T13:44:05.366Z,100388.31
2022-08-09T13:49:18.053Z,100382.95
2022-08-09T13:54:21.648Z,100379.38
2022-08-09T13:59:41.864Z,100379.91
2022-08-09T14:04:49.412Z,100380.84
2022-08-09T14:10:03.349Z,100381.28
2022-08-09T14:16:02.069Z,100381.09
2022-08-09T14:20:31.138Z,100381.82
2022-08-09T14:25:42.848Z,100388.67
2022-08-09T14:30:46.429Z,100382.58
2022-08-09T14:35:52.113Z,100378.58
2022-08-09T14:41:02.222Z,100373.77
2022-08-09T14:46:55.763Z,100369.31
2022-08-09T14:51:42.811Z,100363.22
2022-08-09T14:56:53.686Z,100362.50
2022-08-09T15:02:01.965Z,100360.11
2022-08-09T15:07:05.933Z,100363.11
2022-08-09T15:12:13.416Z,100364.36
2022-08-09T15:17:16.483Z,100367.60
2022-08-09T15:22:20.871Z,100360.58
2022-08-09T15:27:28.941Z,100364.79
2022-08-09T15:32:52.402Z,100364.54
2022-08-09T15:38:11.240Z,100367.48
2022-08-09T15:43:15.013Z,100360.48
2022-08-09T15:48:29.061Z,100361.04
2022-08-09T15:54:05.276Z,100359.16
2022-08-09T15:58:56.270Z,100359.57
2022-08-09T16:04:01.958Z,100361.20
2022-08-09T16:09:06.375Z,100357.66
2022-08-09T16:14:09.459Z,100357.80
2022-08-09T16:19:17.121Z,100361.29
2022-08-09T16:24:33.052Z,100361.41
2022-08-09T16:29:50.004Z,100359.05
2022-08-09T16:34:54.846Z,100358.79
2022-08-09T16:40:05.652Z,100363.70
2022-08-09T16:45:10.537Z,100366.63
2022-08-09T16:50:32.462Z,100362.35
2022-08-09T16:55:58.494Z,100368.33
2022-08-09T17:01:00.884Z,100372.10
2022-08-09T17:06:28.103Z,100376.48
2022-08-09T17:11:40.632Z,100387.13
2022-08-09T17:16:45.195Z,100394.88
2022-08-09T17:21:48.328Z,100398.58
2022-08-09T17:26:58.737Z,100396.64
2022-08-09T17:32:02.355Z,100403.77
2022-08-09T17:37:19.741Z,100407.18
2022-08-09T17:42:55.199Z,100410.03
2022-08-09T17:47:49.676Z,100415.67
2022-08-09T17:52:58.209Z,100419.23
2022-08-09T17:58:03.598Z,100423.98
2022-08-09T18:03:08.803Z,100418.81
2022-08-09T18:08:13.387Z,100422.95
2022-08-09T18:13:53.529Z,100427.79
2022-08-09T18:18:49.211Z,100436.53
2022-08-09T18:24:09.854Z,100441.89
2022-08-09T18:30:40.885Z,100446.52
2022-08-09T18:34:48.182Z,100441.05
2022-08-09T18:39:51.521Z,100443.41
2022-08-09T18:44:54.576Z,100445.79
2022-08-09T18:50:02.985Z,100455.09
2022-08-09T18:55:13.705Z,100458.20
2022-08-09T19:00:20.163Z,100462.91
2022-08-09T19:05:28.705Z,100470.15
2022-08-09T19:10:48.152Z,100472.52
2022-08-09T19:15:55.829Z,100472.83
2022-08-09T19:21:00.568Z,100477.67
2022-08-09T19:26:05.422Z,100474.78
2022-08-09T19:31:08.634Z,100476.66
2022-08-09T19:36:11.905Z,100478.08
2022-08-09T19:41:33.184Z,100480.76
2022-08-09T19:46:50.913Z,100478.27
2022-08-09T19:51:57.295Z,100475.50
2022-08-09T19:57:00.555Z,100476.63
2022-08-09T20:02:18.241Z,100476.77
2022-08-09T20:07:56.904Z,100473.27
2022-08-09T20:12:55.693Z,100473.40
2022-08-09T20:18:02.437Z,100473.43
2022-08-09T20:23:07.548Z,100470.71
2022-08-09T20:28:12.804Z,100470.96
2022-08-09T20:33:28.202Z,100464.77
2022-08-09T20:39:28.486Z,100474.27
2022-08-09T20:44:10.215Z,100473.80
2022-08-09T20:49:16.016Z,100475.90
2022-08-09T20:54:19.831Z,100473.36
2022-08-09T21:00:20.931Z,100477.76
2022-08-09T21:05:53.364Z,100482.52
2022-08-09T21:10:12.102Z,100480.76
2022-08-09T21:15:15.386Z,100477.15
2022-08-09T21:20:25.687Z,100482.98
2022-08-09T21:25:55.996Z,100481.23
2022-08-09T21:31:16.881Z,100483.77
2022-08-09T21:36:27.867Z,100483.02
2022-08-09T21:42:04.669Z,100480.45
2022-08-09T21:46:57.468Z,100483.09
2022-08-09T21:52:00.714Z,100486.51
2022-08-09T21:57:03.978Z,100484.02
2022-08-09T22:02:09.329Z,100483.89
2022-08-09T22:07:35.112Z,100479.86
2022-08-09T22:12:49.777Z,100474.34
2022-08-09T22:17:54.799Z,100474.45
2022-08-09T22:22:58.340Z,100471.55
2022-08-09T22:28:06.694Z,100469.19
2022-08-09T22:33:10.565Z,100471.16
2022-08-09T22:38:14.754Z,100477.41
2022-08-09T22:44:02.697Z,100478.12
2022-08-09T22:48:50.293Z,100476.48
2022-08-09T22:54:02.633Z,100475.69
2022-08-09T22:59:57.765Z,100473.11
2022-08-09T23:04:32.860Z,100475.08
2022-08-09T23:09:36.085Z,100474.21
2022-08-09T23:14:42.750Z,100468.96
2022-08-09T23:20:07.294Z,100463.04
2022-08-09T23:25:11.148Z,100461.02
2022-08-09T23:30:14.350Z,100463.23
2022-08-09T23:35:17.386Z,100465.41
2022-08-09T23:40:20.684Z,100466.98
2022-08-09T23:45:37.331Z,100464.08
2022-08-09T23:50:41.863Z,100464.14
2022-08-09T23:55:49.441Z,100462.36
